sensor_id;sensor_type;location;lat;lon;timestamp;P1;durP1;ratioP1;P2;durP2;ratioP2
828;SDS011;396;52.558;13.188;2022-07-29T00:00:37;3.63;;;1.80;;
828;SDS011;396;52.558;13.188;2022-07-29T00:03:04;4.03;;;1.70;;
828;SDS011;396;52.558;13.188;2022-07-29T00:05:30;6.77;;;1.87;;
828;SDS011;396;52.558;13.188;2022-07-29T00:07:57;5.03;;;1.50;;
828;SDS011;396;52.558;13.188;2022-07-29T00:10:23;5.37;;;1.87;;
828;SDS011;396;52.558;13.188;2022-07-29T00:12:50;5.10;;;1.80;;
828;SDS011;396;52.558;13.188;2022-07-29T00:15:17;3.27;;;1.70;;
828;SDS011;396;52.558;13.188;2022-07-29T00:17:45;5.40;;;2.17;;
828;SDS011;396;52.558;13.188;2022-07-29T00:20:11;5.13;;;2.20;;
828;SDS011;396;52.558;13.188;2022-07-29T00:22:38;2.97;;;1.50;;
828;SDS011;396;52.558;13.188;2022-07-29T00:25:06;5.50;;;1.47;;
828;SDS011;396;52.558;13.188;2022-07-29T00:27:33;4.47;;;1.90;;
828;SDS011;396;52.558;13.188;2022-07-29T00:29:59;5.53;;;1.70;;
828;SDS011;396;52.558;13.188;2022-07-29T00:32:26;4.03;;;1.90;;
828;SDS011;396;52.558;13.188;2022-07-29T00:34:54;3.27;;;1.40;;
828;SDS011;396;52.558;13.188;2022-07-29T00:37:38;3.40;;;1.83;;
828;SDS011;396;52.558;13.188;2022-07-29T00:40:06;4.10;;;1.60;;
828;SDS011;396;52.558;13.188;2022-07-29T00:42:40;3.17;;;1.90;;
828;SDS011;396;52.558;13.188;2022-07-29T00:45:08;3.83;;;1.87;;
828;SDS011;396;52.558;13.188;2022-07-29T00:47:35;5.57;;;1.83;;
828;SDS011;396;52.558;13.188;2022-07-29T00:50:04;3.90;;;2.17;;
828;SDS011;396;52.558;13.188;2022-07-29T00:52:32;3.93;;;1.80;;
828;SDS011;396;52.558;13.188;2022-07-29T00:54:59;5.60;;;2.87;;
828;SDS011;396;52.558;13.188;2022-07-29T00:57:25;6.77;;;2.50;;
828;SDS011;396;52.558;13.188;2022-07-29T00:59:52;4.70;;;2.77;;
828;SDS011;396;52.558;13.188;2022-07-29T01:02:19;3.27;;;1.87;;
828;SDS011;396;52.558;13.188;2022-07-29T01:04:45;5.80;;;1.33;;
828;SDS011;396;52.558;13.188;2022-07-29T01:07:13;4.10;;;1.80;;
828;SDS011;396;52.558;13.188;2022-07-29T01:09:40;3.60;;;1.33;;
828;SDS011;396;52.558;13.188;2022-07-29T01:12:09;3.70;;;1.60;;
828;SDS011;396;52.558;13.188;2022-07-29T01:14:37;3.50;;;1.57;;
828;SDS011;396;52.558;13.188;2022-07-29T01:17:06;6.40;;;1.97;;
828;SDS011;396;52.558;13.188;2022-07-29T01:19:48;2.97;;;1.50;;
828;SDS011;396;52.558;13.188;2022-07-29T01:22:24;4.10;;;1.50;;
828;SDS011;396;52.558;13.188;2022-07-29T01:25:00;5.10;;;2.50;;
828;SDS011;396;52.558;13.188;2022-07-29T01:27:41;4.33;;;1.97;;
828;SDS011;396;52.558;13.188;2022-07-29T01:30:18;4.93;;;1.93;;
828;SDS011;396;52.558;13.188;2022-07-29T01:32:52;3.50;;;1.87;;
828;SDS011;396;52.558;13.188;2022-07-29T01:35:23;4.27;;;1.77;;
828;SDS011;396;52.558;13.188;2022-07-29T01:37:55;3.63;;;1.77;;
828;SDS011;396;52.558;13.188;2022-07-29T01:40:29;5.30;;;1.90;;
828;SDS011;396;52.558;13.188;2022-07-29T01:43:00;4.30;;;2.03;;
828;SDS011;396;52.558;13.188;2022-07-29T01:45:37;6.87;;;2.17;;
828;SDS011;396;52.558;13.188;2022-07-29T01:48:20;3.30;;;1.53;;
828;SDS011;396;52.558;13.188;2022-07-29T01:50:49;3.50;;;1.50;;
828;SDS011;396;52.558;13.188;2022-07-29T01:53:23;3.33;;;1.83;;
828;SDS011;396;52.558;13.188;2022-07-29T01:55:55;3.70;;;1.80;;
828;SDS011;396;52.558;13.188;2022-07-29T01:58:25;3.67;;;1.63;;
828;SDS011;396;52.558;13.188;2022-07-29T02:00:56;4.00;;;1.63;;
828;SDS011;396;52.558;13.188;2022-07-29T02:03:24;5.83;;;2.00;;
828;SDS011;396;52.558;13.188;2022-07-29T02:05:53;3.83;;;2.13;;
828;SDS011;396;52.558;13.188;2022-07-29T02:08:22;3.57;;;1.93;;
828;SDS011;396;52.558;13.188;2022-07-29T02:10:51;3.43;;;1.80;;
828;SDS011;396;52.558;13.188;2022-07-29T02:13:20;3.87;;;1.90;;
828;SDS011;396;52.558;13.188;2022-07-29T02:15:50;4.60;;;1.70;;
828;SDS011;396;52.558;13.188;2022-07-29T02:18:21;5.17;;;2.10;;
828;SDS011;396;52.558;13.188;2022-07-29T02:20:50;3.83;;;2.00;;
828;SDS011;396;52.558;13.188;2022-07-29T02:23:20;4.43;;;1.77;;
828;SDS011;396;52.558;13.188;2022-07-29T02:25:49;4.30;;;1.20;;
828;SDS011;396;52.558;13.188;2022-07-29T02:28:19;3.60;;;2.03;;
828;SDS011;396;52.558;13.188;2022-07-29T02:30:48;4.97;;;1.87;;
828;SDS011;396;52.558;13.188;2022-07-29T02:33:16;3.03;;;1.77;;
828;SDS011;396;52.558;13.188;2022-07-29T02:35:46;9.57;;;2.20;;
828;SDS011;396;52.558;13.188;2022-07-29T02:38:15;3.47;;;1.80;;
828;SDS011;396;52.558;13.188;2022-07-29T02:41:03;5.67;;;1.90;;
828;SDS011;396;52.558;13.188;2022-07-29T02:43:33;4.50;;;2.07;;
828;SDS011;396;52.558;13.188;2022-07-29T02:46:02;3.63;;;1.60;;
828;SDS011;396;52.558;13.188;2022-07-29T02:48:33;4.70;;;1.97;;
828;SDS011;396;52.558;13.188;2022-07-29T02:51:07;4.47;;;1.37;;
828;SDS011;396;52.558;13.188;2022-07-29T02:53:38;3.30;;;1.70;;
828;SDS011;396;52.558;13.188;2022-07-29T02:56:08;5.17;;;1.70;;
828;SDS011;396;52.558;13.188;2022-07-29T02:58:40;3.20;;;1.50;;
828;SDS011;396;52.558;13.188;2022-07-29T03:01:11;4.43;;;2.17;;
828;SDS011;396;52.558;13.188;2022-07-29T03:03:41;3.57;;;1.60;;
828;SDS011;396;52.558;13.188;2022-07-29T03:06:12;4.10;;;2.23;;
828;SDS011;396;52.558;13.188;2022-07-29T03:08:40;4.30;;;1.43;;
828;SDS011;396;52.558;13.188;2022-07-29T03:11:08;3.13;;;1.53;;
828;SDS011;396;52.558;13.188;2022-07-29T03:13:36;2.90;;;1.30;;
828;SDS011;396;52.558;13.188;2022-07-29T03:16:03;13.73;;;1.97;;
828;SDS011;396;52.558;13.188;2022-07-29T03:18:31;3.43;;;1.63;;
828;SDS011;396;52.558;13.188;2022-07-29T03:20:58;2.90;;;1.57;;
828;SDS011;396;52.558;13.188;2022-07-29T03:23:27;4.77;;;1.60;;
828;SDS011;396;52.558;13.188;2022-07-29T03:25:54;4.67;;;2.07;;
828;SDS011;396;52.558;13.188;2022-07-29T03:28:21;3.23;;;1.67;;
828;SDS011;396;52.558;13.188;2022-07-29T03:30:48;3.27;;;1.27;;
828;SDS011;396;52.558;13.188;2022-07-29T03:33:15;3.40;;;1.63;;
828;SDS011;396;52.558;13.188;2022-07-29T03:35:41;3.07;;;1.67;;
828;SDS011;396;52.558;13.188;2022-07-29T03:38:08;3.50;;;1.40;;
828;SDS011;396;52.558;13.188;2022-07-29T03:40:37;4.30;;;1.90;;
828;SDS011;396;52.558;13.188;2022-07-29T03:43:06;7.77;;;1.87;;
828;SDS011;396;52.558;13.188;2022-07-29T03:45:36;4.10;;;1.73;;
828;SDS011;396;52.558;13.188;2022-07-29T03:48:05;4.93;;;1.60;;
828;SDS011;396;52.558;13.188;2022-07-29T03:50:35;3.33;;;1.67;;
828;SDS011;396;52.558;13.188;2022-07-29T03:53:02;3.50;;;1.83;;
828;SDS011;396;52.558;13.188;2022-07-29T03:55:31;6.60;;;1.87;;
828;SDS011;396;52.558;13.188;2022-07-29T03:58:03;5.40;;;2.10;;
828;SDS011;396;52.558;13.188;2022-07-29T04:00:31;4.10;;;1.53;;
828;SDS011;396;52.558;13.188;2022-07-29T04:02:59;3.13;;;1.73;;
828;SDS011;396;52.558;13.188;2022-07-29T04:05:26;5.13;;;1.97;;
828;SDS011;396;52.558;13.188;2022-07-29T04:07:53;3.20;;;1.80;;
828;SDS011;396;52.558;13.188;2022-07-29T04:10:19;4.13;;;1.53;;
828;SDS011;396;52.558;13.188;2022-07-29T04:12:46;3.03;;;1.23;;
828;SDS011;396;52.558;13.188;2022-07-29T04:15:14;3.00;;;1.67;;
828;SDS011;396;52.558;13.188;2022-07-29T04:17:41;5.80;;;1.60;;
828;SDS011;396;52.558;13.188;2022-07-29T04:20:08;4.20;;;2.03;;
828;SDS011;396;52.558;13.188;2022-07-29T04:22:37;3.50;;;1.50;;
828;SDS011;396;52.558;13.188;2022-07-29T04:25:04;2.50;;;1.10;;
828;SDS011;396;52.558;13.188;2022-07-29T04:27:31;4.17;;;1.70;;
828;SDS011;396;52.558;13.188;2022-07-29T04:29:58;3.90;;;1.67;;
828;SDS011;396;52.558;13.188;2022-07-29T04:32:26;2.77;;;1.33;;
828;SDS011;396;52.558;13.188;2022-07-29T04:34:52;2.73;;;1.23;;
828;SDS011;396;52.558;13.188;2022-07-29T04:37:19;3.60;;;1.60;;
828;SDS011;396;52.558;13.188;2022-07-29T04:39:45;7.70;;;2.00;;
828;SDS011;396;52.558;13.188;2022-07-29T04:42:12;4.07;;;1.50;;
828;SDS011;396;52.558;13.188;2022-07-29T04:44:39;7.50;;;1.70;;
828;SDS011;396;52.558;13.188;2022-07-29T04:47:07;4.40;;;1.87;;
828;SDS011;396;52.558;13.188;2022-07-29T04:49:38;4.23;;;1.70;;
828;SDS011;396;52.558;13.188;2022-07-29T04:52:05;4.40;;;1.50;;
828;SDS011;396;52.558;13.188;2022-07-29T04:54:31;4.57;;;1.70;;
828;SDS011;396;52.558;13.188;2022-07-29T04:56:58;4.20;;;1.37;;
828;SDS011;396;52.558;13.188;2022-07-29T04:59:25;4.53;;;1.80;;
828;SDS011;396;52.558;13.188;2022-07-29T05:01:52;4.30;;;2.03;;
828;SDS011;396;52.558;13.188;2022-07-29T05:04:18;5.93;;;2.33;;
828;SDS011;396;52.558;13.188;2022-07-29T05:06:46;3.63;;;1.60;;
828;SDS011;396;52.558;13.188;2022-07-29T05:09:13;3.47;;;1.40;;
828;SDS011;396;52.558;13.188;2022-07-29T05:11:39;2.97;;;1.50;;
828;SDS011;396;52.558;13.188;2022-07-29T05:14:06;3.77;;;1.80;;
828;SDS011;396;52.558;13.188;2022-07-29T05:16:33;2.80;;;1.30;;
828;SDS011;396;52.558;13.188;2022-07-29T05:18:59;2.70;;;1.17;;
828;SDS011;396;52.558;13.188;2022-07-29T05:21:26;5.10;;;1.60;;
828;SDS011;396;52.558;13.188;2022-07-29T05:23:54;2.87;;;1.10;;
828;SDS011;396;52.558;13.188;2022-07-29T05:26:21;3.77;;;2.10;;
828;SDS011;396;52.558;13.188;2022-07-29T05:28:47;3.60;;;1.40;;
828;SDS011;396;52.558;13.188;2022-07-29T05:31:14;5.60;;;1.70;;
828;SDS011;396;52.558;13.188;2022-07-29T05:33:40;2.90;;;1.23;;
828;SDS011;396;52.558;13.188;2022-07-29T05:36:07;3.33;;;1.60;;
828;SDS011;396;52.558;13.188;2022-07-29T05:38:34;3.47;;;1.53;;
828;SDS011;396;52.558;13.188;2022-07-29T05:41:02;3.10;;;1.47;;
828;SDS011;396;52.558;13.188;2022-07-29T05:43:30;3.87;;;1.57;;
828;SDS011;396;52.558;13.188;2022-07-29T05:45:56;3.13;;;1.40;;
828;SDS011;396;52.558;13.188;2022-07-29T05:48:23;5.47;;;2.10;;
828;SDS011;396;52.558;13.188;2022-07-29T05:50:50;4.30;;;1.60;;
828;SDS011;396;52.558;13.188;2022-07-29T05:53:17;3.30;;;1.30;;
828;SDS011;396;52.558;13.188;2022-07-29T05:55:43;5.13;;;1.40;;
828;SDS011;396;52.558;13.188;2022-07-29T05:58:11;3.70;;;1.53;;
828;SDS011;396;52.558;13.188;2022-07-29T06:00:38;3.57;;;1.70;;
828;SDS011;396;52.558;13.188;2022-07-29T06:03:04;3.77;;;1.63;;
828;SDS011;396;52.558;13.188;2022-07-29T06:05:31;3.63;;;1.37;;
828;SDS011;396;52.558;13.188;2022-07-29T06:07:58;2.60;;;1.20;;
828;SDS011;396;52.558;13.188;2022-07-29T06:10:24;3.83;;;1.93;;
828;SDS011;396;52.558;13.188;2022-07-29T06:12:51;4.00;;;1.97;;
828;SDS011;396;52.558;13.188;2022-07-29T06:15:19;2.63;;;0.97;;
828;SDS011;396;52.558;13.188;2022-07-29T06:17:46;3.80;;;1.47;;
828;SDS011;396;52.558;13.188;2022-07-29T06:20:13;3.00;;;1.40;;
828;SDS011;396;52.558;13.188;2022-07-29T06:22:39;5.13;;;1.80;;
828;SDS011;396;52.558;13.188;2022-07-29T06:25:06;5.50;;;1.93;;
828;SDS011;396;52.558;13.188;2022-07-29T06:27:33;6.37;;;2.00;;
828;SDS011;396;52.558;13.188;2022-07-29T06:29:59;14.03;;;1.50;;
828;SDS011;396;52.558;13.188;2022-07-29T06:32:28;2.80;;;1.30;;
828;SDS011;396;52.558;13.188;2022-07-29T06:34:56;3.60;;;1.50;;
828;SDS011;396;52.558;13.188;2022-07-29T06:37:22;3.30;;;1.60;;
828;SDS011;396;52.558;13.188;2022-07-29T06:39:49;2.50;;;1.07;;
828;SDS011;396;52.558;13.188;2022-07-29T06:42:37;4.13;;;1.50;;
828;SDS011;396;52.558;13.188;2022-07-29T06:45:03;3.50;;;1.50;;
828;SDS011;396;52.558;13.188;2022-07-29T06:47:32;3.33;;;1.83;;
828;SDS011;396;52.558;13.188;2022-07-29T06:49:59;3.10;;;1.00;;
828;SDS011;396;52.558;13.188;2022-07-29T06:52:25;3.07;;;1.40;;
828;SDS011;396;52.558;13.188;2022-07-29T06:54:52;3.83;;;1.37;;
828;SDS011;396;52.558;13.188;2022-07-29T06:57:20;4.70;;;1.93;;
828;SDS011;396;52.558;13.188;2022-07-29T06:59:47;4.17;;;1.70;;
828;SDS011;396;52.558;13.188;2022-07-29T07:02:13;2.73;;;1.40;;
828;SDS011;396;52.558;13.188;2022-07-29T07:04:41;3.20;;;1.30;;
828;SDS011;396;52.558;13.188;2022-07-29T07:07:08;4.90;;;1.33;;
828;SDS011;396;52.558;13.188;2022-07-29T07:09:35;4.90;;;2.20;;
828;SDS011;396;52.558;13.188;2022-07-29T07:12:01;3.83;;;1.70;;
828;SDS011;396;52.558;13.188;2022-07-29T07:14:28;4.07;;;2.10;;
828;SDS011;396;52.558;13.188;2022-07-29T07:16:55;3.10;;;1.60;;
828;SDS011;396;52.558;13.188;2022-07-29T07:19:21;3.53;;;1.47;;
828;SDS011;396;52.558;13.188;2022-07-29T07:21:49;6.90;;;1.80;;
828;SDS011;396;52.558;13.188;2022-07-29T07:24:16;8.53;;;1.80;;
828;SDS011;396;52.558;13.188;2022-07-29T07:26:42;5.80;;;1.77;;
828;SDS011;396;52.558;13.188;2022-07-29T07:29:09;3.97;;;1.50;;
828;SDS011;396;52.558;13.188;2022-07-29T07:31:36;3.40;;;1.37;;
828;SDS011;396;52.558;13.188;2022-07-29T07:34:03;5.53;;;1.70;;
828;SDS011;396;52.558;13.188;2022-07-29T07:36:30;4.70;;;1.43;;
828;SDS011;396;52.558;13.188;2022-07-29T07:38:58;5.93;;;1.40;;
828;SDS011;396;52.558;13.188;2022-07-29T07:41:24;5.13;;;1.83;;
828;SDS011;396;52.558;13.188;2022-07-29T07:43:51;4.20;;;1.20;;
828;SDS011;396;52.558;13.188;2022-07-29T07:46:17;5.43;;;2.10;;
828;SDS011;396;52.558;13.188;2022-07-29T07:48:44;3.73;;;1.40;;
828;SDS011;396;52.558;13.188;2022-07-29T07:51:11;2.70;;;1.03;;
828;SDS011;396;52.558;13.188;2022-07-29T07:53:37;2.67;;;1.23;;
828;SDS011;396;52.558;13.188;2022-07-29T07:56:05;3.13;;;1.50;;
828;SDS011;396;52.558;13.188;2022-07-29T07:58:32;3.10;;;1.40;;
828;SDS011;396;52.558;13.188;2022-07-29T08:01:00;7.80;;;1.60;;
828;SDS011;396;52.558;13.188;2022-07-29T08:03:26;3.87;;;1.80;;
828;SDS011;396;52.558;13.188;2022-07-29T08:05:53;3.20;;;1.40;;
828;SDS011;396;52.558;13.188;2022-07-29T08:08:20;8.10;;;1.40;;
828;SDS011;396;52.558;13.188;2022-07-29T08:10:46;2.50;;;1.00;;
828;SDS011;396;52.558;13.188;2022-07-29T08:13:23;2.50;;;1.10;;
828;SDS011;396;52.558;13.188;2022-07-29T08:15:52;3.10;;;1.27;;
828;SDS011;396;52.558;13.188;2022-07-29T08:18:24;4.47;;;1.07;;
828;SDS011;396;52.558;13.188;2022-07-29T08:20:50;3.30;;;1.20;;
828;SDS011;396;52.558;13.188;2022-07-29T08:23:17;3.13;;;1.40;;
828;SDS011;396;52.558;13.188;2022-07-29T08:25:44;2.63;;;1.20;;
828;SDS011;396;52.558;13.188;2022-07-29T08:28:11;2.60;;;1.03;;
828;SDS011;396;52.558;13.188;2022-07-29T08:30:39;3.20;;;1.23;;
828;SDS011;396;52.558;13.188;2022-07-29T08:33:05;3.57;;;1.07;;
828;SDS011;396;52.558;13.188;2022-07-29T08:35:32;3.00;;;0.80;;
828;SDS011;396;52.558;13.188;2022-07-29T08:37:59;3.67;;;1.20;;
828;SDS011;396;52.558;13.188;2022-07-29T08:40:25;2.70;;;1.10;;
828;SDS011;396;52.558;13.188;2022-07-29T08:42:52;4.40;;;1.57;;
828;SDS011;396;52.558;13.188;2022-07-29T08:45:18;2.50;;;1.00;;
828;SDS011;396;52.558;13.188;2022-07-29T08:47:49;12.70;;;1.17;;
828;SDS011;396;52.558;13.188;2022-07-29T08:50:16;2.40;;;1.03;;
828;SDS011;396;52.558;13.188;2022-07-29T08:52:42;2.60;;;1.07;;
828;SDS011;396;52.558;13.188;2022-07-29T08:55:09;2.50;;;1.10;;
828;SDS011;396;52.558;13.188;2022-07-29T08:57:37;3.00;;;0.97;;
828;SDS011;396;52.558;13.188;2022-07-29T09:00:05;2.07;;;0.77;;
828;SDS011;396;52.558;13.188;2022-07-29T09:02:35;2.10;;;0.77;;
828;SDS011;396;52.558;13.188;2022-07-29T09:05:06;2.47;;;0.80;;
828;SDS011;396;52.558;13.188;2022-07-29T09:07:34;4.33;;;0.70;;
828;SDS011;396;52.558;13.188;2022-07-29T09:10:04;3.43;;;1.10;;
828;SDS011;396;52.558;13.188;2022-07-29T09:12:31;2.30;;;0.80;;
828;SDS011;396;52.558;13.188;2022-07-29T09:14:58;2.20;;;0.80;;
828;SDS011;396;52.558;13.188;2022-07-29T09:17:40;4.20;;;1.20;;
828;SDS011;396;52.558;13.188;2022-07-29T09:20:10;2.93;;;0.90;;
828;SDS011;396;52.558;13.188;2022-07-29T09:22:37;2.50;;;1.13;;
828;SDS011;396;52.558;13.188;2022-07-29T09:25:03;2.10;;;0.67;;
828;SDS011;396;52.558;13.188;2022-07-29T09:27:30;5.20;;;1.10;;
828;SDS011;396;52.558;13.188;2022-07-29T09:29:58;4.20;;;0.87;;
828;SDS011;396;52.558;13.188;2022-07-29T09:32:26;2.70;;;1.00;;
828;SDS011;396;52.558;13.188;2022-07-29T09:37:43;2.87;;;1.33;;
828;SDS011;396;52.558;13.188;2022-07-29T09:40:13;2.40;;;1.00;;
828;SDS011;396;52.558;13.188;2022-07-29T09:42:42;2.00;;;0.77;;
828;SDS011;396;52.558;13.188;2022-07-29T09:45:09;3.07;;;1.13;;
828;SDS011;396;52.558;13.188;2022-07-29T09:47:40;3.27;;;1.17;;
828;SDS011;396;52.558;13.188;2022-07-29T09:50:09;2.00;;;0.70;;
828;SDS011;396;52.558;13.188;2022-07-29T09:52:44;2.87;;;0.97;;
828;SDS011;396;52.558;13.188;2022-07-29T09:55:12;3.13;;;1.03;;
828;SDS011;396;52.558;13.188;2022-07-29T09:57:39;2.47;;;1.17;;
828;SDS011;396;52.558;13.188;2022-07-29T10:00:07;2.30;;;0.87;;
828;SDS011;396;52.558;13.188;2022-07-29T10:02:35;4.00;;;1.13;;
828;SDS011;396;52.558;13.188;2022-07-29T10:05:03;2.70;;;1.03;;
828;SDS011;396;52.558;13.188;2022-07-29T10:07:44;2.97;;;0.70;;
828;SDS011;396;52.558;13.188;2022-07-29T10:10:18;2.40;;;0.83;;
828;SDS011;396;52.558;13.188;2022-07-29T10:12:48;1.97;;;0.60;;
828;SDS011;396;52.558;13.188;2022-07-29T10:15:15;3.27;;;0.90;;
828;SDS011;396;52.558;13.188;2022-07-29T10:17:42;1.93;;;0.60;;
828;SDS011;396;52.558;13.188;2022-07-29T10:20:10;5.80;;;0.97;;
828;SDS011;396;52.558;13.188;2022-07-29T10:22:36;2.63;;;0.90;;
828;SDS011;396;52.558;13.188;2022-07-29T10:25:05;2.67;;;1.00;;
828;SDS011;396;52.558;13.188;2022-07-29T10:27:32;2.47;;;1.00;;
828;SDS011;396;52.558;13.188;2022-07-29T10:29:58;2.20;;;0.70;;
828;SDS011;396;52.558;13.188;2022-07-29T10:32:30;2.63;;;1.40;;
828;SDS011;396;52.558;13.188;2022-07-29T10:35:09;3.23;;;1.10;;
828;SDS011;396;52.558;13.188;2022-07-29T10:37:48;3.23;;;1.10;;
828;SDS011;396;52.558;13.188;2022-07-29T10:40:33;2.63;;;1.03;;
828;SDS011;396;52.558;13.188;2022-07-29T10:43:26;2.60;;;1.10;;
828;SDS011;396;52.558;13.188;2022-07-29T10:45:56;2.73;;;1.30;;
828;SDS011;396;52.558;13.188;2022-07-29T10:48:23;5.70;;;1.40;;
828;SDS011;396;52.558;13.188;2022-07-29T10:50:54;2.13;;;0.70;;
828;SDS011;396;52.558;13.188;2022-07-29T10:53:24;2.57;;;0.80;;
828;SDS011;396;52.558;13.188;2022-07-29T10:55:52;2.90;;;0.97;;
828;SDS011;396;52.558;13.188;2022-07-29T10:58:19;3.70;;;1.03;;
828;SDS011;396;52.558;13.188;2022-07-29T11:00:48;2.30;;;0.70;;
828;SDS011;396;52.558;13.188;2022-07-29T11:06:10;2.50;;;1.00;;
828;SDS011;396;52.558;13.188;2022-07-29T11:08:37;2.93;;;1.10;;
828;SDS011;396;52.558;13.188;2022-07-29T11:14:06;3.70;;;0.83;;
828;SDS011;396;52.558;13.188;2022-07-29T11:19:24;3.00;;;1.40;;
828;SDS011;396;52.558;13.188;2022-07-29T11:21:51;2.23;;;0.90;;
828;SDS011;396;52.558;13.188;2022-07-29T11:24:19;3.00;;;1.27;;
828;SDS011;396;52.558;13.188;2022-07-29T11:27:11;2.53;;;0.90;;
828;SDS011;396;52.558;13.188;2022-07-29T11:29:40;2.57;;;0.93;;
828;SDS011;396;52.558;13.188;2022-07-29T11:32:15;2.73;;;1.03;;
828;SDS011;396;52.558;13.188;2022-07-29T11:34:44;3.60;;;0.80;;
828;SDS011;396;52.558;13.188;2022-07-29T11:37:16;4.00;;;0.83;;
828;SDS011;396;52.558;13.188;2022-07-29T11:42:46;2.70;;;0.90;;
828;SDS011;396;52.558;13.188;2022-07-29T11:45:14;2.50;;;0.90;;
828;SDS011;396;52.558;13.188;2022-07-29T11:47:47;3.37;;;1.30;;
828;SDS011;396;52.558;13.188;2022-07-29T11:50:16;2.60;;;1.20;;
828;SDS011;396;52.558;13.188;2022-07-29T11:52:44;2.73;;;0.87;;
828;SDS011;396;52.558;13.188;2022-07-29T11:55:12;2.50;;;1.00;;
828;SDS011;396;52.558;13.188;2022-07-29T11:57:49;3.30;;;1.13;;
828;SDS011;396;52.558;13.188;2022-07-29T12:00:27;4.47;;;1.20;;
828;SDS011;396;52.558;13.188;2022-07-29T12:02:57;2.37;;;1.10;;
828;SDS011;396;52.558;13.188;2022-07-29T12:05:30;2.33;;;0.90;;
828;SDS011;396;52.558;13.188;2022-07-29T12:08:09;2.60;;;1.00;;
828;SDS011;396;52.558;13.188;2022-07-29T12:10:37;2.30;;;0.73;;
828;SDS011;396;52.558;13.188;2022-07-29T12:13:05;2.60;;;1.07;;
828;SDS011;396;52.558;13.188;2022-07-29T12:15:33;2.93;;;1.13;;
828;SDS011;396;52.558;13.188;2022-07-29T12:18:09;2.60;;;1.13;;
828;SDS011;396;52.558;13.188;2022-07-29T12:20:36;2.77;;;1.10;;
828;SDS011;396;52.558;13.188;2022-07-29T12:23:04;3.40;;;1.20;;
828;SDS011;396;52.558;13.188;2022-07-29T12:25:33;2.57;;;1.47;;
828;SDS011;396;52.558;13.188;2022-07-29T12:28:02;2.90;;;1.40;;
828;SDS011;396;52.558;13.188;2022-07-29T12:30:39;5.13;;;1.13;;
828;SDS011;396;52.558;13.188;2022-07-29T12:33:18;3.00;;;1.00;;
828;SDS011;396;52.558;13.188;2022-07-29T12:35:47;2.83;;;1.10;;
828;SDS011;396;52.558;13.188;2022-07-29T12:38:16;4.97;;;1.20;;
828;SDS011;396;52.558;13.188;2022-07-29T12:40:44;2.17;;;0.90;;
828;SDS011;396;52.558;13.188;2022-07-29T12:43:12;2.80;;;0.90;;
828;SDS011;396;52.558;13.188;2022-07-29T12:45:42;2.70;;;1.00;;
828;SDS011;396;52.558;13.188;2022-07-29T12:48:10;2.40;;;0.87;;
828;SDS011;396;52.558;13.188;2022-07-29T12:50:51;2.90;;;1.30;;
828;SDS011;396;52.558;13.188;2022-07-29T12:53:22;3.10;;;1.20;;
828;SDS011;396;52.558;13.188;2022-07-29T12:55:50;2.83;;;1.17;;
828;SDS011;396;52.558;13.188;2022-07-29T12:58:27;3.33;;;1.30;;
828;SDS011;396;52.558;13.188;2022-07-29T13:01:07;2.63;;;1.33;;
828;SDS011;396;52.558;13.188;2022-07-29T13:03:46;2.93;;;1.20;;
828;SDS011;396;52.558;13.188;2022-07-29T13:06:30;1.93;;;0.87;;
828;SDS011;396;52.558;13.188;2022-07-29T13:08:59;2.93;;;1.50;;
828;SDS011;396;52.558;13.188;2022-07-29T13:11:27;3.40;;;1.20;;
828;SDS011;396;52.558;13.188;2022-07-29T13:13:54;3.30;;;1.17;;
828;SDS011;396;52.558;13.188;2022-07-29T13:16:22;2.60;;;1.10;;
828;SDS011;396;52.558;13.188;2022-07-29T13:18:54;2.70;;;1.40;;
828;SDS011;396;52.558;13.188;2022-07-29T13:21:32;10.07;;;1.83;;
828;SDS011;396;52.558;13.188;2022-07-29T13:23:59;2.50;;;1.10;;
828;SDS011;396;52.558;13.188;2022-07-29T13:26:25;4.10;;;1.57;;
828;SDS011;396;52.558;13.188;2022-07-29T13:28:52;2.50;;;1.10;;
828;SDS011;396;52.558;13.188;2022-07-29T13:31:19;2.80;;;1.30;;
828;SDS011;396;52.558;13.188;2022-07-29T13:33:48;5.80;;;1.33;;
828;SDS011;396;52.558;13.188;2022-07-29T13:36:15;2.30;;;1.00;;
828;SDS011;396;52.558;13.188;2022-07-29T13:38:41;3.20;;;1.20;;
828;SDS011;396;52.558;13.188;2022-07-29T13:41:08;4.23;;;1.40;;
828;SDS011;396;52.558;13.188;2022-07-29T13:43:35;3.13;;;1.57;;
828;SDS011;396;52.558;13.188;2022-07-29T13:46:02;4.90;;;1.50;;
828;SDS011;396;52.558;13.188;2022-07-29T13:48:29;2.67;;;1.03;;
828;SDS011;396;52.558;13.188;2022-07-29T13:50:57;2.53;;;1.20;;
828;SDS011;396;52.558;13.188;2022-07-29T13:53:24;3.33;;;1.53;;
828;SDS011;396;52.558;13.188;2022-07-29T13:55:51;3.17;;;1.40;;
828;SDS011;396;52.558;13.188;2022-07-29T13:58:18;3.40;;;1.40;;
828;SDS011;396;52.558;13.188;2022-07-29T14:00:44;3.40;;;1.50;;
828;SDS011;396;52.558;13.188;2022-07-29T14:03:11;2.43;;;1.17;;
828;SDS011;396;52.558;13.188;2022-07-29T14:05:38;5.83;;;1.40;;
828;SDS011;396;52.558;13.188;2022-07-29T14:08:06;3.13;;;1.53;;
828;SDS011;396;52.558;13.188;2022-07-29T14:10:33;2.90;;;1.50;;
828;SDS011;396;52.558;13.188;2022-07-29T14:12:59;3.20;;;1.60;;
828;SDS011;396;52.558;13.188;2022-07-29T14:15:26;2.60;;;1.30;;
828;SDS011;396;52.558;13.188;2022-07-29T14:17:52;2.80;;;1.37;;
828;SDS011;396;52.558;13.188;2022-07-29T14:20:19;3.27;;;1.20;;
828;SDS011;396;52.558;13.188;2022-07-29T14:22:46;3.53;;;1.43;;
828;SDS011;396;52.558;13.188;2022-07-29T14:25:14;4.03;;;1.70;;
828;SDS011;396;52.558;13.188;2022-07-29T14:27:41;9.17;;;2.30;;
828;SDS011;396;52.558;13.188;2022-07-29T14:30:08;2.30;;;1.10;;
828;SDS011;396;52.558;13.188;2022-07-29T14:32:35;2.50;;;1.40;;
828;SDS011;396;52.558;13.188;2022-07-29T14:35:02;2.73;;;1.13;;
828;SDS011;396;52.558;13.188;2022-07-29T14:37:29;2.50;;;1.10;;
828;SDS011;396;52.558;13.188;2022-07-29T14:39:56;3.50;;;1.73;;
828;SDS011;396;52.558;13.188;2022-07-29T14:42:25;2.43;;;1.13;;
828;SDS011;396;52.558;13.188;2022-07-29T14:44:52;5.67;;;1.97;;
828;SDS011;396;52.558;13.188;2022-07-29T14:47:19;3.60;;;1.90;;
828;SDS011;396;52.558;13.188;2022-07-29T14:49:46;3.67;;;1.70;;
828;SDS011;396;52.558;13.188;2022-07-29T14:52:13;4.03;;;1.90;;
828;SDS011;396;52.558;13.188;2022-07-29T14:54:40;3.07;;;1.63;;
828;SDS011;396;52.558;13.188;2022-07-29T14:57:06;4.23;;;1.27;;
828;SDS011;396;52.558;13.188;2022-07-29T14:59:35;3.67;;;1.60;;
828;SDS011;396;52.558;13.188;2022-07-29T15:02:01;8.33;;;2.33;;
828;SDS011;396;52.558;13.188;2022-07-29T15:04:28;3.87;;;1.90;;
828;SDS011;396;52.558;13.188;2022-07-29T15:06:55;2.60;;;1.40;;
828;SDS011;396;52.558;13.188;2022-07-29T15:09:21;3.73;;;1.30;;
828;SDS011;396;52.558;13.188;2022-07-29T15:11:48;3.93;;;1.70;;
828;SDS011;396;52.558;13.188;2022-07-29T15:14:15;2.77;;;1.17;;
828;SDS011;396;52.558;13.188;2022-07-29T15:16:43;5.33;;;1.70;;
828;SDS011;396;52.558;13.188;2022-07-29T15:19:10;2.90;;;1.50;;
828;SDS011;396;52.558;13.188;2022-07-29T15:21:36;4.20;;;1.93;;
828;SDS011;396;52.558;13.188;2022-07-29T15:24:03;7.03;;;2.17;;
828;SDS011;396;52.558;13.188;2022-07-29T15:26:32;3.03;;;1.50;;
828;SDS011;396;52.558;13.188;2022-07-29T15:28:59;2.90;;;1.60;;
828;SDS011;396;52.558;13.188;2022-07-29T15:31:26;6.30;;;1.57;;
828;SDS011;396;52.558;13.188;2022-07-29T15:33:53;3.93;;;1.50;;
828;SDS011;396;52.558;13.188;2022-07-29T15:36:20;2.73;;;1.60;;
828;SDS011;396;52.558;13.188;2022-07-29T15:38:47;3.27;;;1.90;;
828;SDS011;396;52.558;13.188;2022-07-29T15:41:15;3.77;;;2.07;;
828;SDS011;396;52.558;13.188;2022-07-29T15:43:42;2.97;;;1.47;;
828;SDS011;396;52.558;13.188;2022-07-29T15:46:12;4.13;;;1.70;;
828;SDS011;396;52.558;13.188;2022-07-29T15:48:57;4.40;;;2.13;;
828;SDS011;396;52.558;13.188;2022-07-29T15:51:24;6.90;;;2.23;;
828;SDS011;396;52.558;13.188;2022-07-29T15:53:51;2.77;;;1.57;;